createdAt,value
2022-10-08T00:00:46.665Z,13.51
2022-10-08T00:03:15.125Z,13.51
2022-10-08T00:05:44.481Z,13.52
2022-10-08T00:08:12.416Z,13.50
2022-10-08T00:10:39.877Z,13.50
2022-10-08T00:13:07.509Z,13.47
2022-10-08T00:15:37.675Z,13.46
2022-10-08T00:18:05.445Z,13.45
2022-10-08T00:20:34.837Z,13.45
2022-10-08T00:23:03.826Z,13.44
2022-10-08T00:25:31.441Z,13.43
2022-10-08T00:28:00.162Z,13.39
2022-10-08T00:30:27.797Z,13.34
2022-10-08T00:32:59.774Z,13.29
2022-10-08T00:35:27.662Z,13.22
2022-10-08T00:37:55.273Z,13.18
2022-10-08T00:40:25.115Z,13.13
2022-10-08T00:42:53.534Z,13.09
2022-10-08T00:45:21.308Z,13.07
2022-10-08T00:47:49.887Z,13.06
2022-10-08T00:50:21.073Z,13.06
2022-10-08T00:52:51.699Z,13.06
2022-10-08T00:55:23.644Z,13.07
2022-10-08T00:57:53.223Z,13.07
2022-10-08T01:00:23.677Z,13.07
2022-10-08T01:02:51.433Z,13.08
2022-10-08T01:05:24.890Z,13.08
2022-10-08T01:07:59.508Z,13.09
2022-10-08T01:10:35.493Z,13.08
2022-10-08T01:13:20.305Z,13.07
2022-10-08T01:15:56.512Z,13.05
2022-10-08T01:18:31.338Z,13.03
2022-10-08T01:21:06.833Z,13.01
2022-10-08T01:24:08.192Z,12.97
2022-10-08T01:26:48.309Z,12.93
2022-10-08T01:29:23.054Z,12.92
2022-10-08T01:31:54.986Z,12.92
2022-10-08T01:34:28.811Z,12.90
2022-10-08T01:36:58.910Z,12.88
2022-10-08T01:39:30.803Z,12.85
2022-10-08T01:42:01.435Z,12.84
2022-10-08T01:44:34.653Z,12.81
2022-10-08T01:47:06.949Z,12.79
2022-10-08T01:49:40.585Z,12.78
2022-10-08T01:52:14.758Z,12.79
2022-10-08T01:54:45.389Z,12.77
2022-10-08T01:57:13.085Z,12.75
2022-10-08T01:59:46.089Z,12.73
2022-10-08T02:02:19.586Z,12.72
2022-10-08T02:04:49.155Z,12.70
2022-10-08T02:07:18.998Z,12.68
2022-10-08T02:09:49.144Z,12.66
2022-10-08T02:12:16.846Z,12.66
2022-10-08T02:14:49.885Z,12.63
2022-10-08T02:17:26.330Z,12.62
2022-10-08T02:19:58.515Z,12.61
2022-10-08T02:22:30.628Z,12.62
2022-10-08T02:25:02.939Z,12.60
2022-10-08T02:27:41.402Z,12.57
2022-10-08T02:30:13.626Z,12.54
2022-10-08T02:32:51.072Z,12.54
2022-10-08T02:35:25.312Z,12.51
2022-10-08T02:37:58.639Z,12.49
2022-10-08T02:40:29.091Z,12.47
2022-10-08T02:43:02.426Z,12.45
2022-10-08T02:45:35.616Z,12.44
2022-10-08T02:48:09.302Z,12.42
2022-10-08T02:50:40.181Z,12.39
2022-10-08T02:53:08.404Z,12.38
2022-10-08T02:55:44.121Z,12.38
2022-10-08T02:58:14.408Z,12.38
2022-10-08T03:00:50.826Z,12.37
2022-10-08T03:03:23.992Z,12.33
2022-10-08T03:05:52.676Z,12.32
2022-10-08T03:08:22.366Z,12.30
2022-10-08T03:10:51.002Z,12.28
2022-10-08T03:13:19.444Z,12.27
2022-10-08T03:15:51.852Z,12.25
2022-10-08T03:18:21.000Z,12.23
2022-10-08T03:20:51.943Z,12.21
2022-10-08T03:23:20.051Z,12.19
2022-10-08T03:25:47.697Z,12.19
2022-10-08T03:28:15.392Z,12.17
2022-10-08T03:30:43.075Z,12.14
2022-10-08T03:33:12.117Z,12.12
2022-10-08T03:35:45.490Z,12.11
2022-10-08T03:38:15.394Z,12.08
2022-10-08T03:40:43.181Z,12.09
2022-10-08T03:43:10.859Z,12.09
2022-10-08T03:45:38.516Z,12.08
2022-10-08T03:48:06.151Z,12.08
2022-10-08T03:50:35.433Z,12.09
2022-10-08T03:53:03.069Z,12.08
2022-10-08T03:55:30.658Z,12.08
2022-10-08T03:57:58.352Z,12.09
2022-10-08T04:00:25.960Z,12.07
2022-10-08T04:02:53.719Z,12.06
2022-10-08T04:05:21.374Z,12.03
2022-10-08T04:07:50.340Z,11.98
2022-10-08T04:10:18.045Z,11.96
2022-10-08T04:12:45.815Z,11.94
2022-10-08T04:15:13.555Z,11.93
2022-10-08T04:17:41.687Z,11.87
2022-10-08T04:20:10.225Z,11.84
2022-10-08T04:22:37.821Z,11.82
2022-10-08T04:25:07.079Z,11.80
2022-10-08T04:27:34.701Z,11.77
2022-10-08T04:30:02.361Z,11.76
2022-10-08T04:32:29.977Z,11.73
2022-10-08T04:34:57.586Z,11.72
2022-10-08T04:37:25.345Z,11.69
2022-10-08T04:39:53.007Z,11.67
2022-10-08T04:42:22.069Z,11.64
2022-10-08T04:44:49.728Z,11.62
2022-10-08T04:47:17.493Z,11.59
2022-10-08T04:49:45.123Z,11.56
2022-10-08T04:52:13.812Z,11.52
2022-10-08T04:54:41.441Z,11.50
2022-10-08T04:57:09.085Z,11.48
2022-10-08T04:59:53.771Z,11.46
2022-10-08T05:02:25.689Z,11.43
2022-10-08T05:04:53.365Z,11.43
2022-10-08T05:07:20.998Z,11.43
2022-10-08T05:09:48.617Z,11.43
2022-10-08T05:12:16.268Z,11.40
2022-10-08T05:14:45.232Z,11.39
2022-10-08T05:17:12.879Z,11.38
2022-10-08T05:19:40.490Z,11.36
2022-10-08T05:22:08.090Z,11.36
2022-10-08T05:24:35.838Z,11.35
2022-10-08T05:27:03.507Z,11.33
2022-10-08T05:29:31.490Z,11.32
2022-10-08T05:32:00.280Z,11.31
2022-10-08T05:34:27.913Z,11.26
2022-10-08T05:36:55.598Z,11.24
2022-10-08T05:39:23.222Z,11.19
2022-10-08T05:41:51.719Z,11.16
2022-10-08T05:44:19.344Z,11.13
2022-10-08T05:46:47.032Z,11.11
2022-10-08T05:49:19.479Z,11.08
2022-10-08T05:51:47.267Z,11.04
2022-10-08T05:54:14.946Z,11.02
2022-10-08T05:56:42.732Z,10.99
2022-10-08T05:59:17.489Z,10.95
2022-10-08T06:01:45.183Z,10.96
2022-10-08T06:04:13.642Z,10.91
2022-10-08T06:06:44.171Z,10.89
2022-10-08T06:09:14.632Z,10.89
2022-10-08T06:11:42.494Z,10.89
2022-10-08T06:14:12.510Z,10.90
2022-10-08T06:16:40.688Z,10.90
2022-10-08T06:19:09.722Z,10.91
2022-10-08T06:21:37.850Z,10.92
2022-10-08T06:24:09.225Z,10.93
2022-10-08T06:26:38.471Z,10.93
2022-10-08T06:29:06.800Z,10.95
2022-10-08T06:31:35.190Z,10.94
2022-10-08T06:34:04.326Z,10.97
2022-10-08T06:36:34.037Z,10.96
2022-10-08T06:39:03.826Z,10.97
2022-10-08T06:41:34.869Z,10.99
2022-10-08T06:44:03.429Z,10.99
2022-10-08T06:46:32.761Z,11.00
2022-10-08T06:49:01.551Z,11.02
2022-10-08T06:51:30.210Z,11.04
2022-10-08T06:54:06.623Z,11.07
2022-10-08T06:56:37.218Z,11.13
2022-10-08T06:59:05.725Z,11.24
2022-10-08T07:01:35.073Z,11.39
2022-10-08T07:04:04.319Z,11.54
2022-10-08T07:06:32.290Z,11.66
2022-10-08T07:09:00.532Z,11.78
2022-10-08T07:11:29.097Z,11.89
2022-10-08T07:13:58.354Z,11.99
2022-10-08T07:16:28.011Z,12.07
2022-10-08T07:18:58.262Z,12.16
2022-10-08T07:21:26.147Z,12.28
2022-10-08T07:23:53.783Z,12.39
2022-10-08T07:26:24.638Z,12.51
2022-10-08T07:28:55.051Z,12.65
2022-10-08T07:31:27.088Z,12.80
2022-10-08T07:33:55.077Z,12.97
2022-10-08T07:36:23.641Z,13.14
2022-10-08T07:38:55.319Z,13.39
2022-10-08T07:41:23.324Z,13.55
2022-10-08T07:43:52.311Z,13.70
2022-10-08T07:46:20.384Z,13.83
2022-10-08T07:48:50.709Z,13.98
2022-10-08T07:51:20.555Z,14.13
2022-10-08T07:53:48.554Z,14.28
2022-10-08T07:56:18.092Z,14.43
2022-10-08T07:58:47.250Z,14.56
2022-10-08T08:01:20.747Z,14.69
2022-10-08T08:03:55.327Z,14.81
2022-10-08T08:06:24.102Z,14.96
2022-10-08T08:08:52.766Z,15.09
2022-10-08T08:11:23.486Z,15.22
2022-10-08T08:13:52.138Z,15.40
2022-10-08T08:16:22.098Z,15.60
2022-10-08T08:18:52.671Z,15.80
2022-10-08T08:21:23.956Z,15.97
2022-10-08T08:23:53.615Z,16.08
2022-10-08T08:26:24.519Z,16.22
2022-10-08T08:28:53.243Z,16.38
2022-10-08T08:31:22.835Z,16.54
2022-10-08T08:33:52.818Z,16.69
2022-10-08T08:36:25.638Z,16.86
2022-10-08T08:38:53.786Z,17.09
2022-10-08T08:41:38.216Z,17.33
2022-10-08T08:44:11.532Z,17.54
2022-10-08T08:46:44.302Z,17.65
2022-10-08T08:49:20.183Z,17.86
2022-10-08T08:51:49.244Z,18.03
2022-10-08T08:54:16.930Z,18.06
2022-10-08T08:56:44.399Z,17.91
2022-10-08T08:59:25.392Z,17.84
2022-10-08T09:01:57.302Z,17.65
2022-10-08T09:04:30.991Z,17.50
2022-10-08T09:07:02.253Z,17.39
2022-10-08T09:09:35.845Z,17.22
2022-10-08T09:12:05.167Z,16.98
2022-10-08T09:14:37.343Z,16.81
2022-10-08T09:17:14.953Z,16.72
2022-10-08T09:19:43.633Z,16.64
2022-10-08T09:22:24.155Z,16.57
2022-10-08T09:24:58.269Z,16.67
2022-10-08T09:27:25.863Z,16.92
2022-10-08T09:29:53.610Z,17.04
2022-10-08T09:32:22.688Z,17.08
2022-10-08T09:34:50.395Z,17.07
2022-10-08T09:37:23.790Z,16.92
2022-10-08T09:40:17.337Z,16.84
2022-10-08T09:42:45.267Z,16.80
2022-10-08T09:45:35.189Z,16.70
2022-10-08T09:48:20.081Z,16.59
2022-10-08T09:50:52.239Z,16.52
2022-10-08T09:53:22.689Z,16.42
2022-10-08T09:55:55.069Z,16.32
2022-10-08T09:58:23.094Z,16.24
2022-10-08T10:01:00.155Z,16.14
2022-10-08T10:03:28.336Z,16.18
2022-10-08T10:05:59.024Z,16.43
2022-10-08T10:08:51.497Z,16.82
2022-10-08T10:11:25.507Z,17.24
2022-10-08T10:13:53.825Z,17.70
2022-10-08T10:16:26.154Z,18.22
2022-10-08T10:18:58.658Z,18.69
2022-10-08T10:21:35.849Z,19.15
2022-10-08T10:24:26.825Z,19.72
2022-10-08T10:26:57.857Z,20.27
2022-10-08T10:29:30.417Z,20.72
2022-10-08T10:32:04.871Z,20.97
2022-10-08T10:34:37.200Z,21.04
2022-10-08T10:37:11.424Z,20.96
2022-10-08T10:39:48.890Z,20.72
2022-10-08T10:42:20.531Z,20.41
2022-10-08T10:44:53.778Z,20.20
2022-10-08T10:47:27.131Z,20.24
2022-10-08T10:49:58.627Z,20.59
2022-10-08T10:52:41.491Z,20.93
2022-10-08T10:55:21.237Z,21.49
2022-10-08T10:58:19.768Z,21.95
2022-10-08T11:00:55.569Z,22.23
2022-10-08T11:03:32.021Z,22.65
2022-10-08T11:06:16.233Z,23.25
2022-10-08T11:08:52.098Z,23.77
2022-10-08T11:11:32.261Z,24.22
2022-10-08T11:14:15.122Z,24.42
2022-10-08T11:16:57.202Z,24.61
2022-10-08T11:19:39.069Z,24.68
2022-10-08T11:22:15.181Z,24.57
2022-10-08T11:24:57.161Z,24.11
2022-10-08T11:27:39.532Z,24.09
2022-10-08T11:30:13.943Z,24.43
2022-10-08T11:32:44.312Z,24.81
2022-10-08T11:35:24.725Z,25.44
2022-10-08T11:38:00.516Z,25.59
2022-10-08T11:40:35.347Z,26.00
2022-10-08T11:43:11.744Z,26.51
2022-10-08T11:45:41.314Z,26.95
2022-10-08T11:48:33.232Z,27.12
2022-10-08T11:51:29.178Z,27.24
2022-10-08T11:54:16.945Z,27.36
2022-10-08T11:56:47.394Z,27.65
2022-10-08T11:59:34.024Z,27.89
2022-10-08T12:02:04.208Z,28.30
2022-10-08T12:04:35.650Z,28.50
2022-10-08T12:07:18.365Z,28.46
2022-10-08T12:10:27.210Z,28.73
2022-10-08T12:13:25.582Z,29.16
2022-10-08T12:16:04.922Z,29.53
2022-10-08T12:18:43.067Z,29.63
2022-10-08T12:21:43.493Z,29.86
2022-10-08T12:24:53.502Z,30.22
2022-10-08T12:27:42.149Z,30.65
2022-10-08T12:30:12.246Z,30.68
2022-10-08T12:32:55.912Z,31.06
2022-10-08T12:35:26.665Z,31.06
2022-10-08T12:38:18.336Z,31.27
2022-10-08T12:40:54.033Z,31.51
2022-10-08T12:43:27.920Z,31.21
2022-10-08T12:45:58.489Z,30.13
2022-10-08T12:48:36.169Z,28.85
2022-10-08T12:51:16.057Z,27.83
2022-10-08T12:53:45.960Z,26.92
2022-10-08T12:56:19.811Z,26.18
2022-10-08T12:58:49.432Z,25.59
2022-10-08T13:01:19.502Z,25.18
2022-10-08T13:03:48.954Z,25.42
2022-10-08T13:06:19.130Z,25.95
2022-10-08T13:08:50.214Z,26.11
2022-10-08T13:11:17.878Z,26.27
2022-10-08T13:13:50.294Z,26.05
2022-10-08T13:16:20.567Z,25.67
2022-10-08T13:18:53.510Z,25.23
2022-10-08T13:21:35.252Z,24.84
2022-10-08T13:24:04.450Z,24.74
2022-10-08T13:26:40.817Z,25.26
2022-10-08T13:29:18.474Z,25.36
2022-10-08T13:31:53.957Z,24.97
2022-10-08T13:34:24.851Z,24.43
2022-10-08T13:36:55.417Z,24.03
2022-10-08T13:39:25.550Z,23.68
2022-10-08T13:41:56.738Z,23.81
2022-10-08T13:44:25.649Z,24.40
2022-10-08T13:46:53.414Z,25.01
2022-10-08T13:49:24.133Z,25.65
2022-10-08T13:51:53.093Z,26.17
2022-10-08T13:54:25.882Z,26.43
2022-10-08T13:56:53.541Z,26.61
2022-10-08T13:59:23.464Z,26.68
2022-10-08T14:01:53.178Z,26.59
2022-10-08T14:04:20.818Z,26.23
2022-10-08T14:06:52.682Z,26.09
2022-10-08T14:09:22.531Z,26.13
2022-10-08T14:11:55.809Z,26.10
2022-10-08T14:14:24.627Z,26.22
2022-10-08T14:16:53.006Z,26.35
2022-10-08T14:19:21.421Z,26.18
2022-10-08T14:21:55.108Z,25.67
2022-10-08T14:24:23.067Z,25.45
2022-10-08T14:26:50.928Z,25.12
2022-10-08T14:29:18.645Z,24.75
2022-10-08T14:31:46.350Z,24.68
2022-10-08T14:34:14.057Z,24.65
2022-10-08T14:36:42.890Z,24.41
2022-10-08T14:39:11.933Z,24.44
2022-10-08T14:41:40.760Z,24.39
2022-10-08T14:44:08.425Z,24.59
2022-10-08T14:46:36.043Z,24.80
2022-10-08T14:49:04.843Z,24.83
2022-10-08T14:51:38.436Z,24.75
2022-10-08T14:54:07.225Z,24.58
2022-10-08T14:56:37.714Z,24.52
2022-10-08T14:59:05.639Z,24.39
2022-10-08T15:01:33.331Z,24.26
2022-10-08T15:04:01.079Z,24.23
2022-10-08T15:06:28.831Z,24.26
2022-10-08T15:08:56.469Z,24.31
2022-10-08T15:11:24.209Z,24.28
2022-10-08T15:13:55.703Z,24.22
2022-10-08T15:16:23.717Z,24.09
2022-10-08T15:18:51.541Z,23.86
2022-10-08T15:21:19.358Z,23.70
2022-10-08T15:23:47.136Z,23.67
2022-10-08T15:26:17.440Z,23.68
2022-10-08T15:28:46.731Z,23.70
2022-10-08T15:31:17.779Z,23.73
2022-10-08T15:33:47.099Z,23.67
2022-10-08T15:36:19.622Z,23.63
2022-10-08T15:38:47.721Z,23.55
2022-10-08T15:41:17.298Z,23.18
2022-10-08T15:43:45.016Z,22.79
2022-10-08T15:46:16.750Z,22.38
2022-10-08T15:48:51.757Z,22.10
2022-10-08T15:51:19.457Z,22.00
2022-10-08T15:53:47.387Z,21.95
2022-10-08T15:56:15.190Z,21.84
2022-10-08T15:58:50.844Z,21.75
2022-10-08T16:01:22.134Z,21.69
2022-10-08T16:03:51.503Z,21.68
2022-10-08T16:06:20.770Z,21.68
2022-10-08T16:08:48.534Z,21.66
2022-10-08T16:11:18.042Z,21.59
2022-10-08T16:13:47.237Z,21.49
2022-10-08T16:16:16.993Z,21.33
2022-10-08T16:18:47.440Z,21.16
2022-10-08T16:21:15.182Z,21.03
2022-10-08T16:23:42.856Z,20.92
2022-10-08T16:26:13.835Z,20.78
2022-10-08T16:28:42.082Z,20.52
2022-10-08T16:31:11.327Z,20.33
2022-10-08T16:33:39.569Z,20.18
2022-10-08T16:36:10.661Z,19.98
2022-10-08T16:38:40.112Z,19.77
2022-10-08T16:41:15.985Z,19.55
2022-10-08T16:43:46.182Z,19.41
2022-10-08T16:46:18.733Z,19.27
2022-10-08T16:48:51.898Z,19.12
2022-10-08T16:51:22.639Z,19.01
2022-10-08T16:53:50.940Z,18.90
2022-10-08T16:56:19.283Z,18.82
2022-10-08T16:58:51.971Z,18.74
2022-10-08T17:01:20.278Z,18.65
2022-10-08T17:03:48.986Z,18.57
2022-10-08T17:06:17.563Z,18.51
2022-10-08T17:08:47.234Z,18.43
2022-10-08T17:11:15.937Z,18.35
2022-10-08T17:13:44.611Z,18.25
2022-10-08T17:16:13.878Z,18.18
2022-10-08T17:18:43.233Z,18.07
2022-10-08T17:21:12.051Z,17.97
2022-10-08T17:23:40.308Z,17.87
2022-10-08T17:26:11.390Z,17.74
2022-10-08T17:28:40.935Z,17.66
2022-10-08T17:31:11.547Z,17.58
2022-10-08T17:33:39.567Z,17.52
2022-10-08T17:36:10.226Z,17.42
2022-10-08T17:38:39.125Z,17.36
2022-10-08T17:41:16.453Z,17.34
2022-10-08T17:43:45.080Z,17.31
2022-10-08T17:46:15.233Z,17.24
2022-10-08T17:48:43.538Z,17.16
2022-10-08T17:51:13.106Z,17.09
2022-10-08T17:53:40.836Z,17.02
2022-10-08T17:56:09.454Z,16.94
2022-10-08T17:58:38.919Z,16.86
2022-10-08T18:01:09.121Z,16.82
2022-10-08T18:03:38.069Z,16.77
2022-10-08T18:06:06.607Z,16.66
2022-10-08T18:08:34.860Z,16.61
2022-10-08T18:11:04.162Z,16.54
2022-10-08T18:13:32.747Z,16.47
2022-10-08T18:16:05.663Z,16.41
2022-10-08T18:18:33.833Z,16.30
2022-10-08T18:21:02.597Z,16.21
2022-10-08T18:23:31.912Z,16.12
2022-10-08T18:26:08.717Z,16.09
2022-10-08T18:28:36.606Z,16.04
2022-10-08T18:31:07.321Z,15.99
2022-10-08T18:33:37.146Z,15.94
2022-10-08T18:36:09.534Z,15.85
2022-10-08T18:38:37.174Z,15.78
2022-10-08T18:41:12.273Z,15.73
2022-10-08T18:43:39.961Z,15.64
2022-10-08T18:46:09.136Z,15.60
2022-10-08T18:48:38.058Z,15.52
2022-10-08T18:51:07.252Z,15.40
2022-10-08T18:53:36.693Z,15.36
2022-10-08T18:56:05.613Z,15.28
2022-10-08T18:58:33.265Z,15.22
2022-10-08T19:01:00.991Z,15.11
2022-10-08T19:03:30.031Z,14.94
2022-10-08T19:05:57.686Z,14.82
2022-10-08T19:08:25.379Z,14.71
2022-10-08T19:10:53.205Z,14.63
2022-10-08T19:13:20.971Z,14.56
2022-10-08T19:15:48.685Z,14.52
2022-10-08T19:18:16.361Z,14.43
2022-10-08T19:20:45.852Z,14.38
2022-10-08T19:23:13.601Z,14.28
2022-10-08T19:25:41.738Z,14.21
2022-10-08T19:28:09.896Z,14.09
2022-10-08T19:30:37.735Z,14.06
2022-10-08T19:33:05.671Z,13.95
2022-10-08T19:35:33.469Z,13.91
2022-10-08T19:38:02.651Z,13.77
2022-10-08T19:40:34.035Z,13.68
2022-10-08T19:43:01.935Z,13.59
2022-10-08T19:45:30.158Z,13.55
2022-10-08T19:47:57.746Z,13.50
2022-10-08T19:50:25.598Z,13.40
2022-10-08T19:52:53.326Z,13.35
2022-10-08T19:56:34.372Z,13.28
2022-10-08T19:59:01.098Z,13.24
2022-10-08T20:01:31.530Z,13.18
2022-10-08T20:04:01.198Z,13.07
2022-10-08T20:06:30.849Z,12.99
2022-10-08T20:09:00.963Z,12.94
2022-10-08T20:11:31.175Z,12.89
2022-10-08T20:14:00.242Z,12.81
2022-10-08T20:16:30.622Z,12.73
2022-10-08T20:19:00.394Z,12.68
2022-10-08T20:21:29.842Z,12.69
2022-10-08T20:23:57.536Z,12.64
2022-10-08T20:26:27.050Z,12.61
2022-10-08T20:28:58.995Z,12.57
2022-10-08T20:31:29.822Z,12.60
2022-10-08T20:33:59.817Z,12.57
2022-10-08T20:36:28.130Z,12.49
2022-10-08T20:38:56.088Z,12.38
2022-10-08T20:41:28.208Z,12.34
2022-10-08T20:44:02.873Z,12.31
2022-10-08T20:46:31.723Z,12.29
2022-10-08T20:48:59.817Z,12.27
2022-10-08T20:51:28.892Z,12.23
2022-10-08T20:53:59.763Z,12.17
2022-10-08T20:56:28.692Z,12.13
2022-10-08T20:58:56.714Z,12.04
2022-10-08T21:01:26.440Z,11.95
2022-10-08T21:03:54.768Z,11.86
2022-10-08T21:06:24.911Z,11.87
2022-10-08T21:08:54.266Z,11.87
2022-10-08T21:11:24.952Z,11.88
2022-10-08T21:13:53.061Z,11.81
2022-10-08T21:16:23.293Z,11.70
2022-10-08T21:18:54.114Z,11.59
2022-10-08T21:21:21.800Z,11.53
2022-10-08T21:23:50.191Z,11.52
2022-10-08T21:26:20.454Z,11.51
2022-10-08T21:28:49.835Z,11.45
2022-10-08T21:31:19.306Z,11.39
2022-10-08T21:33:49.181Z,11.29
2022-10-08T21:36:19.790Z,11.13
2022-10-08T21:38:47.494Z,11.01
2022-10-08T21:41:16.920Z,10.90
2022-10-08T21:43:46.812Z,10.89
2022-10-08T21:46:16.737Z,10.86
2022-10-08T21:48:45.020Z,10.80
2022-10-08T21:51:14.620Z,10.75
2022-10-08T21:53:46.382Z,10.69
2022-10-08T21:56:15.701Z,10.64
2022-10-08T21:58:45.487Z,10.62
2022-10-08T22:01:22.111Z,10.62
2022-10-08T22:03:49.870Z,10.63
2022-10-08T22:06:17.459Z,10.65
2022-10-08T22:08:46.458Z,10.65
2022-10-08T22:11:14.130Z,10.61
2022-10-08T22:13:41.950Z,10.56
2022-10-08T22:16:11.695Z,10.54
2022-10-08T22:18:40.063Z,10.51
2022-10-08T22:21:10.543Z,10.51
2022-10-08T22:23:38.199Z,10.50
2022-10-08T22:26:09.641Z,10.48
2022-10-08T22:28:37.802Z,10.48
2022-10-08T22:31:07.129Z,10.46
2022-10-08T22:33:35.214Z,10.48
2022-10-08T22:36:02.793Z,10.46
2022-10-08T22:38:31.862Z,10.42
2022-10-08T22:41:04.195Z,10.40
2022-10-08T22:43:33.355Z,10.38
2022-10-08T22:46:03.898Z,10.38
2022-10-08T22:48:31.708Z,10.34
2022-10-08T22:51:03.233Z,10.28
2022-10-08T22:53:31.300Z,10.26
2022-10-08T22:55:58.907Z,10.25
2022-10-08T22:58:27.002Z,10.23
2022-10-08T23:01:02.515Z,10.23
2022-10-08T23:03:30.262Z,10.20
2022-10-08T23:06:05.370Z,10.14
2022-10-08T23:08:34.066Z,10.11
2022-10-08T23:11:02.601Z,10.09
2022-10-08T23:13:30.808Z,10.06
2022-10-08T23:16:05.855Z,10.00
2022-10-08T23:18:35.193Z,9.90
2022-10-08T23:21:03.501Z,9.87
2022-10-08T23:23:32.097Z,9.84
2022-10-08T23:26:01.204Z,9.83
2022-10-08T23:28:29.703Z,9.78
2022-10-08T23:31:06.640Z,9.68
2022-10-08T23:33:34.634Z,9.63
2022-10-08T23:36:02.458Z,9.62
2022-10-08T23:38:30.109Z,9.61
2022-10-08T23:41:00.957Z,9.55
2022-10-08T23:43:29.079Z,9.50
2022-10-08T23:45:56.643Z,9.48
2022-10-08T23:48:25.826Z,9.46
2022-10-08T23:50:54.171Z,9.40
2022-10-08T23:53:22.778Z,9.37
2022-10-08T23:55:50.684Z,9.38
2022-10-08T23:58:18.831Z,9.33
